sensor_id;sensor_type;location;lat;lon;timestamp;P1;durP1;ratioP1;P2;durP2;ratioP2
23490;SDS011;14683;50.038;8.078;2024-03-23T02:52:23;25.17;;;16.27;;
23490;SDS011;14683;50.038;8.078;2024-03-23T02:55:24;28.13;;;17.15;;
23490;SDS011;14683;50.038;8.078;2024-03-23T02:58:25;23.38;;;16.35;;
23490;SDS011;14683;50.038;8.078;2024-03-23T03:01:26;26.50;;;16.65;;
23490;SDS011;14683;50.038;8.078;2024-03-23T03:04:28;25.70;;;16.67;;
23490;SDS011;14683;50.038;8.078;2024-03-23T03:07:29;24.88;;;16.88;;
23490;SDS011;14683;50.038;8.078;2024-03-23T03:10:30;27.33;;;17.42;;
23490;SDS011;14683;50.038;8.078;2024-03-23T03:13:33;26.27;;;17.38;;
23490;SDS011;14683;50.038;8.078;2024-03-23T03:16:34;22.02;;;15.00;;
23490;SDS011;14683;50.038;8.078;2024-03-23T03:19:35;23.60;;;14.77;;
23490;SDS011;14683;50.038;8.078;2024-03-23T03:22:36;20.50;;;14.27;;
23490;SDS011;14683;50.038;8.078;2024-03-23T03:25:37;19.60;;;13.82;;
23490;SDS011;14683;50.038;8.078;2024-03-23T03:28:38;19.98;;;13.88;;
23490;SDS011;14683;50.038;8.078;2024-03-23T03:31:39;19.35;;;13.60;;
23490;SDS011;14683;50.038;8.078;2024-03-23T03:34:41;17.23;;;12.82;;
23490;SDS011;14683;50.038;8.078;2024-03-23T03:37:42;15.85;;;11.75;;
23490;SDS011;14683;50.038;8.078;2024-03-23T03:40:43;15.52;;;10.88;;
23490;SDS011;14683;50.038;8.078;2024-03-23T03:43:44;15.70;;;11.55;;
23490;SDS011;14683;50.038;8.078;2024-03-23T03:46:45;15.75;;;11.68;;
23490;SDS011;14683;50.038;8.078;2024-03-23T03:49:47;8.73;;;6.05;;
23490;SDS011;14683;50.038;8.078;2024-03-23T03:52:48;3.25;;;2.75;;
23490;SDS011;14683;50.038;8.078;2024-03-23T03:55:49;2.10;;;1.88;;
23490;SDS011;14683;50.038;8.078;2024-03-23T03:58:50;2.40;;;2.03;;
23490;SDS011;14683;50.038;8.078;2024-03-23T04:01:51;2.60;;;1.63;;
23490;SDS011;14683;50.038;8.078;2024-03-23T04:04:52;2.00;;;1.80;;
23490;SDS011;14683;50.038;8.078;2024-03-23T04:07:54;1.77;;;1.67;;
23490;SDS011;14683;50.038;8.078;2024-03-23T04:10:55;1.60;;;1.50;;
23490;SDS011;14683;50.038;8.078;2024-03-23T04:13:56;1.38;;;1.30;;
23490;SDS011;14683;50.038;8.078;2024-03-23T04:16:57;1.75;;;1.40;;
23490;SDS011;14683;50.038;8.078;2024-03-23T04:19:58;2.05;;;1.88;;
23490;SDS011;14683;50.038;8.078;2024-03-23T04:22:59;1.77;;;1.67;;
23490;SDS011;14683;50.038;8.078;2024-03-23T04:26:03;1.73;;;1.60;;
23490;SDS011;14683;50.038;8.078;2024-03-23T04:29:06;2.10;;;1.60;;
23490;SDS011;14683;50.038;8.078;2024-03-23T04:32:07;2.08;;;1.95;;
23490;SDS011;14683;50.038;8.078;2024-03-23T04:35:08;2.30;;;1.80;;
23490;SDS011;14683;50.038;8.078;2024-03-23T04:38:12;1.60;;;1.50;;
23490;SDS011;14683;50.038;8.078;2024-03-23T04:41:13;2.50;;;2.15;;
23490;SDS011;14683;50.038;8.078;2024-03-23T04:44:15;2.13;;;1.95;;
23490;SDS011;14683;50.038;8.078;2024-03-23T04:47:20;2.20;;;2.00;;
23490;SDS011;14683;50.038;8.078;2024-03-23T04:50:21;2.53;;;2.10;;
23490;SDS011;14683;50.038;8.078;2024-03-23T04:53:22;2.85;;;1.65;;
23490;SDS011;14683;50.038;8.078;2024-03-23T04:56:29;1.85;;;1.70;;
23490;SDS011;14683;50.038;8.078;2024-03-23T04:59:32;1.80;;;1.70;;
23490;SDS011;14683;50.038;8.078;2024-03-23T05:02:34;1.67;;;1.58;;
23490;SDS011;14683;50.038;8.078;2024-03-23T05:05:35;1.98;;;1.85;;
23490;SDS011;14683;50.038;8.078;2024-03-23T05:08:36;2.47;;;2.05;;
23490;SDS011;14683;50.038;8.078;2024-03-23T05:11:38;2.05;;;1.67;;
23490;SDS011;14683;50.038;8.078;2024-03-23T05:14:39;2.08;;;1.80;;
23490;SDS011;14683;50.038;8.078;2024-03-23T05:17:40;2.78;;;2.10;;
23490;SDS011;14683;50.038;8.078;2024-03-23T05:20:41;2.45;;;1.60;;
23490;SDS011;14683;50.038;8.078;2024-03-23T05:23:42;1.05;;;1.05;;
23490;SDS011;14683;50.038;8.078;2024-03-23T05:26:44;4.38;;;0.90;;
23490;SDS011;14683;50.038;8.078;2024-03-23T05:29:45;1.25;;;1.17;;
23490;SDS011;14683;50.038;8.078;2024-03-23T05:32:48;0.93;;;0.70;;
23490;SDS011;14683;50.038;8.078;2024-03-23T05:35:58;1.20;;;1.10;;
23490;SDS011;14683;50.038;8.078;2024-03-23T05:39:01;0.60;;;0.60;;
23490;SDS011;14683;50.038;8.078;2024-03-23T05:42:04;0.80;;;0.80;;
23490;SDS011;14683;50.038;8.078;2024-03-23T05:45:05;0.73;;;0.73;;
23490;SDS011;14683;50.038;8.078;2024-03-23T05:48:07;0.80;;;0.80;;
23490;SDS011;14683;50.038;8.078;2024-03-23T05:51:08;0.70;;;0.70;;
23490;SDS011;14683;50.038;8.078;2024-03-23T05:54:09;1.75;;;0.77;;
23490;SDS011;14683;50.038;8.078;2024-03-23T05:57:10;0.70;;;0.70;;
23490;SDS011;14683;50.038;8.078;2024-03-23T06:00:13;1.85;;;0.75;;
23490;SDS011;14683;50.038;8.078;2024-03-23T06:03:17;0.77;;;0.73;;
23490;SDS011;14683;50.038;8.078;2024-03-23T06:06:18;0.80;;;0.80;;
23490;SDS011;14683;50.038;8.078;2024-03-23T06:09:19;0.75;;;0.75;;
23490;SDS011;14683;50.038;8.078;2024-03-23T06:12:21;1.25;;;1.15;;
23490;SDS011;14683;50.038;8.078;2024-03-23T06:15:22;0.80;;;0.80;;
23490;SDS011;14683;50.038;8.078;2024-03-23T06:18:23;1.15;;;1.15;;
23490;SDS011;14683;50.038;8.078;2024-03-23T06:21:24;1.10;;;1.10;;
23490;SDS011;14683;50.038;8.078;2024-03-23T06:24:25;1.15;;;1.00;;
23490;SDS011;14683;50.038;8.078;2024-03-23T06:27:26;1.20;;;1.10;;
23490;SDS011;14683;50.038;8.078;2024-03-23T06:30:28;2.13;;;1.50;;
23490;SDS011;14683;50.038;8.078;2024-03-23T06:33:30;1.50;;;1.27;;
23490;SDS011;14683;50.038;8.078;2024-03-23T06:36:31;3.10;;;1.38;;
23490;SDS011;14683;50.038;8.078;2024-03-23T06:39:32;2.78;;;1.75;;
23490;SDS011;14683;50.038;8.078;2024-03-23T06:42:33;2.60;;;1.58;;
23490;SDS011;14683;50.038;8.078;2024-03-23T06:45:34;2.33;;;1.60;;
23490;SDS011;14683;50.038;8.078;2024-03-23T06:48:37;6.18;;;2.20;;
23490;SDS011;14683;50.038;8.078;2024-03-23T06:51:38;4.60;;;2.22;;
23490;SDS011;14683;50.038;8.078;2024-03-23T06:54:40;4.35;;;1.92;;
23490;SDS011;14683;50.038;8.078;2024-03-23T06:57:41;5.43;;;2.30;;
23490;SDS011;14683;50.038;8.078;2024-03-23T07:00:42;4.93;;;2.63;;
23490;SDS011;14683;50.038;8.078;2024-03-23T07:03:43;5.38;;;3.00;;
23490;SDS011;14683;50.038;8.078;2024-03-23T07:06:45;3.85;;;2.80;;
23490;SDS011;14683;50.038;8.078;2024-03-23T07:09:46;4.13;;;2.90;;
23490;SDS011;14683;50.038;8.078;2024-03-23T07:12:47;5.05;;;2.97;;
23490;SDS011;14683;50.038;8.078;2024-03-23T07:15:52;3.97;;;3.15;;
23490;SDS011;14683;50.038;8.078;2024-03-23T07:18:55;6.07;;;3.47;;
23490;SDS011;14683;50.038;8.078;2024-03-23T07:21:56;7.35;;;4.00;;
23490;SDS011;14683;50.038;8.078;2024-03-23T07:25:00;3.88;;;3.33;;
23490;SDS011;14683;50.038;8.078;2024-03-23T07:28:01;6.13;;;3.92;;
23490;SDS011;14683;50.038;8.078;2024-03-23T07:31:12;5.32;;;4.05;;
23490;SDS011;14683;50.038;8.078;2024-03-23T07:34:15;4.93;;;4.07;;
23490;SDS011;14683;50.038;8.078;2024-03-23T07:37:16;7.65;;;3.95;;
23490;SDS011;14683;50.038;8.078;2024-03-23T07:40:17;6.50;;;4.10;;
23490;SDS011;14683;50.038;8.078;2024-03-23T07:43:18;6.85;;;4.10;;
23490;SDS011;14683;50.038;8.078;2024-03-23T07:46:20;6.82;;;4.40;;
23490;SDS011;14683;50.038;8.078;2024-03-23T07:49:21;8.07;;;3.95;;
23490;SDS011;14683;50.038;8.078;2024-03-23T07:52:22;11.45;;;4.35;;
23490;SDS011;14683;50.038;8.078;2024-03-23T07:55:23;6.63;;;3.97;;
23490;SDS011;14683;50.038;8.078;2024-03-23T07:58:25;9.85;;;4.57;;
23490;SDS011;14683;50.038;8.078;2024-03-23T08:01:27;6.70;;;4.25;;
23490;SDS011;14683;50.038;8.078;2024-03-23T08:04:28;8.75;;;4.10;;
23490;SDS011;14683;50.038;8.078;2024-03-23T08:07:29;7.57;;;4.03;;
23490;SDS011;14683;50.038;8.078;2024-03-23T08:10:30;11.02;;;4.50;;
23490;SDS011;14683;50.038;8.078;2024-03-23T08:13:31;6.57;;;4.07;;
23490;SDS011;14683;50.038;8.078;2024-03-23T08:16:33;10.55;;;3.38;;
23490;SDS011;14683;50.038;8.078;2024-03-23T08:19:35;9.32;;;3.47;;
23490;SDS011;14683;50.038;8.078;2024-03-23T08:22:36;7.95;;;3.78;;
23490;SDS011;14683;50.038;8.078;2024-03-23T08:25:37;7.40;;;3.38;;
23490;SDS011;14683;50.038;8.078;2024-03-23T08:28:38;11.95;;;4.32;;
23490;SDS011;14683;50.038;8.078;2024-03-23T08:31:39;10.98;;;3.88;;
23490;SDS011;14683;50.038;8.078;2024-03-23T08:34:40;8.45;;;3.55;;
23490;SDS011;14683;50.038;8.078;2024-03-23T08:37:42;10.68;;;3.63;;
23490;SDS011;14683;50.038;8.078;2024-03-23T08:40:43;7.90;;;3.60;;
23490;SDS011;14683;50.038;8.078;2024-03-23T08:43:44;9.27;;;3.35;;
23490;SDS011;14683;50.038;8.078;2024-03-23T08:46:45;7.70;;;3.00;;
23490;SDS011;14683;50.038;8.078;2024-03-23T08:49:46;6.97;;;2.90;;
23490;SDS011;14683;50.038;8.078;2024-03-23T08:52:48;7.93;;;3.00;;
23490;SDS011;14683;50.038;8.078;2024-03-23T08:55:55;6.95;;;2.80;;
23490;SDS011;14683;50.038;8.078;2024-03-23T08:58:56;7.88;;;2.80;;
23490;SDS011;14683;50.038;8.078;2024-03-23T09:01:57;5.78;;;2.20;;
23490;SDS011;14683;50.038;8.078;2024-03-23T09:04:58;4.78;;;2.40;;
23490;SDS011;14683;50.038;8.078;2024-03-23T09:08:05;6.72;;;2.17;;
23490;SDS011;14683;50.038;8.078;2024-03-23T09:11:07;12.07;;;2.60;;
23490;SDS011;14683;50.038;8.078;2024-03-23T09:14:10;9.07;;;2.30;;
23490;SDS011;14683;50.038;8.078;2024-03-23T09:17:11;7.40;;;2.78;;
23490;SDS011;14683;50.038;8.078;2024-03-23T09:20:12;6.40;;;2.17;;
23490;SDS011;14683;50.038;8.078;2024-03-23T09:23:13;7.57;;;2.13;;
23490;SDS011;14683;50.038;8.078;2024-03-23T09:26:14;6.70;;;2.03;;
23490;SDS011;14683;50.038;8.078;2024-03-23T09:29:15;7.03;;;2.38;;
23490;SDS011;14683;50.038;8.078;2024-03-23T09:32:16;7.75;;;2.05;;
23490;SDS011;14683;50.038;8.078;2024-03-23T09:35:18;5.30;;;1.92;;
23490;SDS011;14683;50.038;8.078;2024-03-23T09:38:19;8.95;;;2.22;;
23490;SDS011;14683;50.038;8.078;2024-03-23T09:41:20;7.78;;;1.90;;
23490;SDS011;14683;50.038;8.078;2024-03-23T09:44:21;6.35;;;2.10;;
23490;SDS011;14683;50.038;8.078;2024-03-23T09:47:22;6.03;;;2.10;;
23490;SDS011;14683;50.038;8.078;2024-03-23T09:50:24;6.38;;;2.17;;
23490;SDS011;14683;50.038;8.078;2024-03-23T09:53:25;8.93;;;2.22;;
23490;SDS011;14683;50.038;8.078;2024-03-23T09:56:26;5.88;;;2.08;;
23490;SDS011;14683;50.038;8.078;2024-03-23T09:59:27;8.65;;;2.80;;
23490;SDS011;14683;50.038;8.078;2024-03-23T10:02:28;7.07;;;2.05;;
23490;SDS011;14683;50.038;8.078;2024-03-23T10:05:30;5.10;;;2.28;;
23490;SDS011;14683;50.038;8.078;2024-03-23T10:08:37;6.27;;;2.40;;
23490;SDS011;14683;50.038;8.078;2024-03-23T10:11:38;5.70;;;1.85;;
23490;SDS011;14683;50.038;8.078;2024-03-23T10:14:40;2.45;;;1.30;;
23490;SDS011;14683;50.038;8.078;2024-03-23T10:17:42;5.53;;;1.73;;
23490;SDS011;14683;50.038;8.078;2024-03-23T10:20:43;4.07;;;1.73;;
23490;SDS011;14683;50.038;8.078;2024-03-23T10:23:44;5.15;;;2.10;;
23490;SDS011;14683;50.038;8.078;2024-03-23T10:26:49;3.67;;;1.83;;
23490;SDS011;14683;50.038;8.078;2024-03-23T10:29:56;2.67;;;1.58;;
23490;SDS011;14683;50.038;8.078;2024-03-23T10:33:09;5.93;;;2.17;;
23490;SDS011;14683;50.038;8.078;2024-03-23T10:36:11;5.15;;;2.50;;
23490;SDS011;14683;50.038;8.078;2024-03-23T10:39:12;4.72;;;2.17;;
23490;SDS011;14683;50.038;8.078;2024-03-23T10:42:17;5.35;;;2.33;;
23490;SDS011;14683;50.038;8.078;2024-03-23T10:45:20;4.85;;;2.35;;
23490;SDS011;14683;50.038;8.078;2024-03-23T10:48:21;6.53;;;2.53;;
23490;SDS011;14683;50.038;8.078;2024-03-23T10:51:22;4.32;;;1.85;;
23490;SDS011;14683;50.038;8.078;2024-03-23T10:54:24;3.13;;;1.55;;
23490;SDS011;14683;50.038;8.078;2024-03-23T10:57:27;3.30;;;1.55;;
23490;SDS011;14683;50.038;8.078;2024-03-23T11:00:32;2.05;;;1.35;;
23490;SDS011;14683;50.038;8.078;2024-03-23T11:03:37;3.17;;;1.40;;
23490;SDS011;14683;50.038;8.078;2024-03-23T11:06:39;5.03;;;1.63;;
23490;SDS011;14683;50.038;8.078;2024-03-23T11:09:42;8.10;;;2.95;;
23490;SDS011;14683;50.038;8.078;2024-03-23T11:12:45;4.95;;;2.17;;
23490;SDS011;14683;50.038;8.078;2024-03-23T11:15:47;6.60;;;2.50;;
23490;SDS011;14683;50.038;8.078;2024-03-23T11:18:48;8.20;;;2.67;;
23490;SDS011;14683;50.038;8.078;2024-03-23T11:21:52;8.57;;;2.67;;
23490;SDS011;14683;50.038;8.078;2024-03-23T11:24:54;6.90;;;3.15;;
23490;SDS011;14683;50.038;8.078;2024-03-23T11:27:56;10.73;;;3.05;;
23490;SDS011;14683;50.038;8.078;2024-03-23T11:30:58;7.80;;;2.72;;
23490;SDS011;14683;50.038;8.078;2024-03-23T11:34:03;6.55;;;2.60;;
23490;SDS011;14683;50.038;8.078;2024-03-23T11:37:05;7.30;;;2.50;;
23490;SDS011;14683;50.038;8.078;2024-03-23T11:40:17;11.07;;;3.72;;
23490;SDS011;14683;50.038;8.078;2024-03-23T11:43:19;7.78;;;3.20;;
23490;SDS011;14683;50.038;8.078;2024-03-23T11:46:22;10.40;;;3.38;;
23490;SDS011;14683;50.038;8.078;2024-03-23T11:49:27;12.85;;;5.88;;
23490;SDS011;14683;50.038;8.078;2024-03-23T11:52:29;8.27;;;3.20;;
23490;SDS011;14683;50.038;8.078;2024-03-23T11:55:30;8.00;;;2.80;;
23490;SDS011;14683;50.038;8.078;2024-03-23T11:58:42;6.05;;;2.70;;
23490;SDS011;14683;50.038;8.078;2024-03-23T12:01:44;4.85;;;2.28;;
23490;SDS011;14683;50.038;8.078;2024-03-23T12:04:45;4.82;;;2.15;;
23490;SDS011;14683;50.038;8.078;2024-03-23T12:07:46;7.47;;;2.42;;
23490;SDS011;14683;50.038;8.078;2024-03-23T12:11:21;5.25;;;1.92;;
23490;SDS011;14683;50.038;8.078;2024-03-23T12:14:16;6.50;;;1.85;;
23490;SDS011;14683;50.038;8.078;2024-03-23T12:17:17;3.40;;;1.63;;
23490;SDS011;14683;50.038;8.078;2024-03-23T12:20:22;5.63;;;1.90;;
23490;SDS011;14683;50.038;8.078;2024-03-23T12:23:23;4.10;;;2.17;;
23490;SDS011;14683;50.038;8.078;2024-03-23T12:26:24;4.55;;;2.08;;
23490;SDS011;14683;50.038;8.078;2024-03-23T12:29:27;2.63;;;1.77;;
23490;SDS011;14683;50.038;8.078;2024-03-23T12:32:29;7.40;;;2.08;;
23490;SDS011;14683;50.038;8.078;2024-03-23T12:35:30;1.85;;;0.73;;
23490;SDS011;14683;50.038;8.078;2024-03-23T12:38:31;0.73;;;0.60;;
23490;SDS011;14683;50.038;8.078;2024-03-23T12:41:32;1.85;;;0.70;;
23490;SDS011;14683;50.038;8.078;2024-03-23T12:44:34;1.08;;;0.63;;
23490;SDS011;14683;50.038;8.078;2024-03-23T12:47:35;2.00;;;0.77;;
23490;SDS011;14683;50.038;8.078;2024-03-23T12:50:37;1.10;;;0.70;;
23490;SDS011;14683;50.038;8.078;2024-03-23T12:53:38;0.50;;;0.50;;
23490;SDS011;14683;50.038;8.078;2024-03-23T12:56:39;1.60;;;0.50;;
23490;SDS011;14683;50.038;8.078;2024-03-23T12:59:40;2.53;;;2.08;;
23490;SDS011;14683;50.038;8.078;2024-03-23T13:02:41;0.50;;;0.43;;
23490;SDS011;14683;50.038;8.078;2024-03-23T13:05:43;1.13;;;0.30;;
23490;SDS011;14683;50.038;8.078;2024-03-23T13:08:47;0.40;;;0.40;;
23490;SDS011;14683;50.038;8.078;2024-03-23T13:11:50;0.77;;;0.40;;
23490;SDS011;14683;50.038;8.078;2024-03-23T13:14:51;0.40;;;0.40;;
23490;SDS011;14683;50.038;8.078;2024-03-23T13:17:52;0.63;;;0.60;;
23490;SDS011;14683;50.038;8.078;2024-03-23T13:20:54;0.45;;;0.40;;
23490;SDS011;14683;50.038;8.078;2024-03-23T13:23:55;2.15;;;0.60;;
23490;SDS011;14683;50.038;8.078;2024-03-23T13:26:56;1.77;;;0.68;;
23490;SDS011;14683;50.038;8.078;2024-03-23T13:29:58;2.03;;;0.70;;
23490;SDS011;14683;50.038;8.078;2024-03-23T13:32:59;1.67;;;0.70;;
23490;SDS011;14683;50.038;8.078;2024-03-23T13:36:00;2.42;;;0.88;;
23490;SDS011;14683;50.038;8.078;2024-03-23T13:39:02;5.93;;;3.03;;
23490;SDS011;14683;50.038;8.078;2024-03-23T13:42:11;2.92;;;1.70;;
23490;SDS011;14683;50.038;8.078;2024-03-23T13:45:13;4.47;;;2.05;;
23490;SDS011;14683;50.038;8.078;2024-03-23T13:48:15;4.50;;;3.40;;
23490;SDS011;14683;50.038;8.078;2024-03-23T13:51:22;4.00;;;2.60;;
23490;SDS011;14683;50.038;8.078;2024-03-23T13:54:25;2.40;;;1.17;;
23490;SDS011;14683;50.038;8.078;2024-03-23T13:57:26;0.98;;;0.60;;
23490;SDS011;14683;50.038;8.078;2024-03-23T14:00:27;2.92;;;0.93;;
23490;SDS011;14683;50.038;8.078;2024-03-23T14:03:28;1.75;;;0.63;;
23490;SDS011;14683;50.038;8.078;2024-03-23T14:06:30;1.10;;;0.55;;
23490;SDS011;14683;50.038;8.078;2024-03-23T14:09:31;1.05;;;0.60;;
23490;SDS011;14683;50.038;8.078;2024-03-23T14:12:33;1.50;;;0.60;;
23490;SDS011;14683;50.038;8.078;2024-03-23T14:15:34;1.52;;;0.93;;
23490;SDS011;14683;50.038;8.078;2024-03-23T14:18:37;4.63;;;1.40;;
23490;SDS011;14683;50.038;8.078;2024-03-23T14:21:38;3.63;;;2.35;;
23490;SDS011;14683;50.038;8.078;2024-03-23T14:24:39;3.72;;;1.63;;
23490;SDS011;14683;50.038;8.078;2024-03-23T14:27:40;2.20;;;0.77;;
23490;SDS011;14683;50.038;8.078;2024-03-23T14:30:42;1.98;;;0.80;;
23490;SDS011;14683;50.038;8.078;2024-03-23T14:33:43;1.70;;;0.80;;
23490;SDS011;14683;50.038;8.078;2024-03-23T14:36:47;4.30;;;1.05;;
23490;SDS011;14683;50.038;8.078;2024-03-23T14:39:49;1.02;;;0.60;;
23490;SDS011;14683;50.038;8.078;2024-03-23T14:42:50;4.47;;;2.08;;
23490;SDS011;14683;50.038;8.078;2024-03-23T14:49:23;13.75;;;4.05;;
23490;SDS011;14683;50.038;8.078;2024-03-23T14:52:24;6.93;;;2.05;;
23490;SDS011;14683;50.038;8.078;2024-03-23T14:55:25;6.75;;;2.67;;
23490;SDS011;14683;50.038;8.078;2024-03-23T14:58:26;7.75;;;2.08;;
23490;SDS011;14683;50.038;8.078;2024-03-23T15:01:27;3.78;;;1.17;;
23490;SDS011;14683;50.038;8.078;2024-03-23T15:04:29;5.45;;;2.40;;
23490;SDS011;14683;50.038;8.078;2024-03-23T15:07:33;3.97;;;1.45;;
23490;SDS011;14683;50.038;8.078;2024-03-23T15:10:34;7.07;;;1.98;;
23490;SDS011;14683;50.038;8.078;2024-03-23T15:13:35;21.50;;;6.35;;
23490;SDS011;14683;50.038;8.078;2024-03-23T15:16:37;18.85;;;5.80;;
23490;SDS011;14683;50.038;8.078;2024-03-23T15:19:38;2.13;;;1.08;;
23490;SDS011;14683;50.038;8.078;2024-03-23T15:22:39;6.03;;;1.98;;
23490;SDS011;14683;50.038;8.078;2024-03-23T15:25:40;12.30;;;3.05;;
23490;SDS011;14683;50.038;8.078;2024-03-23T15:28:42;3.88;;;1.05;;
23490;SDS011;14683;50.038;8.078;2024-03-23T15:32:05;16.42;;;3.63;;
23490;SDS011;14683;50.038;8.078;2024-03-23T15:35:06;5.20;;;1.60;;
23490;SDS011;14683;50.038;8.078;2024-03-23T15:38:08;4.45;;;1.52;;
23490;SDS011;14683;50.038;8.078;2024-03-23T15:41:10;4.45;;;1.00;;
23490;SDS011;14683;50.038;8.078;2024-03-23T15:44:11;9.88;;;4.78;;
23490;SDS011;14683;50.038;8.078;2024-03-23T15:47:13;8.90;;;3.10;;
23490;SDS011;14683;50.038;8.078;2024-03-23T15:50:14;1.60;;;0.65;;
23490;SDS011;14683;50.038;8.078;2024-03-23T15:53:15;8.10;;;2.35;;
23490;SDS011;14683;50.038;8.078;2024-03-23T15:56:16;5.93;;;1.70;;
23490;SDS011;14683;50.038;8.078;2024-03-23T15:59:17;11.10;;;3.67;;
23490;SDS011;14683;50.038;8.078;2024-03-23T16:02:18;1.88;;;0.80;;
23490;SDS011;14683;50.038;8.078;2024-03-23T16:05:19;3.88;;;1.30;;
23490;SDS011;14683;50.038;8.078;2024-03-23T16:08:21;4.88;;;1.05;;
23490;SDS011;14683;50.038;8.078;2024-03-23T16:11:22;5.95;;;1.40;;
23490;SDS011;14683;50.038;8.078;2024-03-23T16:14:23;9.52;;;2.30;;
23490;SDS011;14683;50.038;8.078;2024-03-23T16:17:24;4.90;;;1.27;;
23490;SDS011;14683;50.038;8.078;2024-03-23T16:20:25;2.95;;;1.10;;
23490;SDS011;14683;50.038;8.078;2024-03-23T16:23:26;9.43;;;2.83;;
23490;SDS011;14683;50.038;8.078;2024-03-23T16:26:28;20.20;;;4.47;;
23490;SDS011;14683;50.038;8.078;2024-03-23T16:29:29;9.77;;;2.25;;
23490;SDS011;14683;50.038;8.078;2024-03-23T16:32:30;1.98;;;1.00;;
23490;SDS011;14683;50.038;8.078;2024-03-23T16:35:35;0.82;;;0.73;;
23490;SDS011;14683;50.038;8.078;2024-03-23T16:38:40;3.28;;;0.95;;
23490;SDS011;14683;50.038;8.078;2024-03-23T16:41:42;1.38;;;0.80;;
23490;SDS011;14683;50.038;8.078;2024-03-23T16:44:43;3.70;;;0.93;;
23490;SDS011;14683;50.038;8.078;2024-03-23T16:47:44;3.63;;;1.00;;
23490;SDS011;14683;50.038;8.078;2024-03-23T16:50:47;1.92;;;0.88;;
23490;SDS011;14683;50.038;8.078;2024-03-23T16:53:48;1.80;;;0.90;;
23490;SDS011;14683;50.038;8.078;2024-03-23T16:56:49;1.42;;;0.70;;
23490;SDS011;14683;50.038;8.078;2024-03-23T16:59:51;1.33;;;0.70;;
23490;SDS011;14683;50.038;8.078;2024-03-23T17:02:52;3.20;;;0.85;;
23490;SDS011;14683;50.038;8.078;2024-03-23T17:05:53;0.85;;;0.40;;
23490;SDS011;14683;50.038;8.078;2024-03-23T17:08:55;2.35;;;0.80;;
23490;SDS011;14683;50.038;8.078;2024-03-23T17:11:56;1.13;;;0.60;;
23490;SDS011;14683;50.038;8.078;2024-03-23T17:14:58;1.00;;;0.60;;
23490;SDS011;14683;50.038;8.078;2024-03-23T17:17:59;2.67;;;0.70;;
23490;SDS011;14683;50.038;8.078;2024-03-23T17:21:00;0.90;;;0.82;;
23490;SDS011;14683;50.038;8.078;2024-03-23T17:24:01;2.47;;;1.10;;
23490;SDS011;14683;50.038;8.078;2024-03-23T17:27:03;1.98;;;0.80;;
23490;SDS011;14683;50.038;8.078;2024-03-23T17:30:04;2.05;;;0.75;;
23490;SDS011;14683;50.038;8.078;2024-03-23T17:33:06;1.15;;;0.70;;
23490;SDS011;14683;50.038;8.078;2024-03-23T17:36:07;1.42;;;0.77;;
23490;SDS011;14683;50.038;8.078;2024-03-23T17:39:09;1.35;;;0.50;;
23490;SDS011;14683;50.038;8.078;2024-03-23T17:42:13;1.27;;;0.70;;
23490;SDS011;14683;50.038;8.078;2024-03-23T17:45:15;1.40;;;0.55;;
23490;SDS011;14683;50.038;8.078;2024-03-23T17:48:17;1.90;;;0.70;;
23490;SDS011;14683;50.038;8.078;2024-03-23T17:51:18;1.42;;;0.70;;
23490;SDS011;14683;50.038;8.078;2024-03-23T17:54:19;2.42;;;0.80;;
23490;SDS011;14683;50.038;8.078;2024-03-23T17:57:20;1.20;;;0.70;;
23490;SDS011;14683;50.038;8.078;2024-03-23T18:00:21;2.90;;;0.80;;
23490;SDS011;14683;50.038;8.078;2024-03-23T18:03:22;1.20;;;1.10;;
23490;SDS011;14683;50.038;8.078;2024-03-23T18:06:23;3.70;;;2.40;;
23490;SDS011;14683;50.038;8.078;2024-03-23T18:09:25;2.55;;;1.90;;
23490;SDS011;14683;50.038;8.078;2024-03-23T18:12:26;1.85;;;1.55;;
23490;SDS011;14683;50.038;8.078;2024-03-23T18:15:27;1.88;;;1.17;;
23490;SDS011;14683;50.038;8.078;2024-03-23T18:18:28;2.65;;;0.90;;
23490;SDS011;14683;50.038;8.078;2024-03-23T18:21:30;1.13;;;0.90;;
23490;SDS011;14683;50.038;8.078;2024-03-23T18:24:31;3.20;;;0.77;;
23490;SDS011;14683;50.038;8.078;2024-03-23T18:27:32;1.75;;;0.90;;
23490;SDS011;14683;50.038;8.078;2024-03-23T18:30:33;2.72;;;1.13;;
23490;SDS011;14683;50.038;8.078;2024-03-23T18:33:36;2.42;;;1.10;;
23490;SDS011;14683;50.038;8.078;2024-03-23T18:36:40;1.17;;;0.68;;
23490;SDS011;14683;50.038;8.078;2024-03-23T18:39:42;3.28;;;1.25;;
23490;SDS011;14683;50.038;8.078;2024-03-23T18:42:44;1.83;;;0.93;;
23490;SDS011;14683;50.038;8.078;2024-03-23T18:45:49;0.82;;;0.82;;
23490;SDS011;14683;50.038;8.078;2024-03-23T18:48:51;2.20;;;0.90;;
23490;SDS011;14683;50.038;8.078;2024-03-23T18:51:52;0.88;;;0.80;;
23490;SDS011;14683;50.038;8.078;2024-03-23T18:54:53;2.85;;;0.82;;
23490;SDS011;14683;50.038;8.078;2024-03-23T18:57:55;1.10;;;0.80;;
23490;SDS011;14683;50.038;8.078;2024-03-23T19:01:00;1.88;;;0.70;;
23490;SDS011;14683;50.038;8.078;2024-03-23T19:04:04;3.17;;;1.50;;
23490;SDS011;14683;50.038;8.078;2024-03-23T19:07:05;4.93;;;2.38;;
23490;SDS011;14683;50.038;8.078;2024-03-23T19:10:06;3.45;;;2.13;;
23490;SDS011;14683;50.038;8.078;2024-03-23T19:13:08;2.25;;;1.83;;
23490;SDS011;14683;50.038;8.078;2024-03-23T19:16:11;3.55;;;2.05;;
23490;SDS011;14683;50.038;8.078;2024-03-23T19:19:12;1.98;;;1.75;;
23490;SDS011;14683;50.038;8.078;2024-03-23T19:22:13;3.13;;;1.60;;
23490;SDS011;14683;50.038;8.078;2024-03-23T19:25:15;2.75;;;1.70;;
23490;SDS011;14683;50.038;8.078;2024-03-23T19:28:18;3.45;;;2.10;;
23490;SDS011;14683;50.038;8.078;2024-03-23T19:31:20;4.80;;;2.25;;
23490;SDS011;14683;50.038;8.078;2024-03-23T19:34:22;1.60;;;1.23;;
23490;SDS011;14683;50.038;8.078;2024-03-23T19:37:23;2.05;;;1.00;;
23490;SDS011;14683;50.038;8.078;2024-03-23T19:40:25;1.90;;;1.10;;
23490;SDS011;14683;50.038;8.078;2024-03-23T19:43:26;1.63;;;1.15;;
23490;SDS011;14683;50.038;8.078;2024-03-23T19:46:29;1.25;;;1.20;;
23490;SDS011;14683;50.038;8.078;2024-03-23T19:49:30;1.20;;;1.10;;
23490;SDS011;14683;50.038;8.078;2024-03-23T19:52:31;1.40;;;1.30;;
23490;SDS011;14683;50.038;8.078;2024-03-23T19:55:33;2.42;;;1.23;;
23490;SDS011;14683;50.038;8.078;2024-03-23T19:58:34;1.33;;;1.20;;
23490;SDS011;14683;50.038;8.078;2024-03-23T20:01:36;1.15;;;1.08;;
23490;SDS011;14683;50.038;8.078;2024-03-23T20:04:37;1.10;;;1.00;;
23490;SDS011;14683;50.038;8.078;2024-03-23T20:07:38;0.80;;;0.70;;
23490;SDS011;14683;50.038;8.078;2024-03-23T20:10:45;1.00;;;0.90;;
23490;SDS011;14683;50.038;8.078;2024-03-23T20:13:47;1.30;;;0.98;;
23490;SDS011;14683;50.038;8.078;2024-03-23T20:16:50;1.13;;;1.00;;
23490;SDS011;14683;50.038;8.078;2024-03-23T20:19:54;1.13;;;0.80;;
23490;SDS011;14683;50.038;8.078;2024-03-23T20:22:55;3.25;;;0.75;;
23490;SDS011;14683;50.038;8.078;2024-03-23T20:25:57;0.88;;;0.85;;
23490;SDS011;14683;50.038;8.078;2024-03-23T20:28:58;1.77;;;0.82;;
23490;SDS011;14683;50.038;8.078;2024-03-23T20:32:00;3.85;;;1.40;;
23490;SDS011;14683;50.038;8.078;2024-03-23T20:35:03;2.58;;;1.88;;
23490;SDS011;14683;50.038;8.078;2024-03-23T20:38:05;4.00;;;2.20;;
23490;SDS011;14683;50.038;8.078;2024-03-23T20:41:06;2.65;;;1.98;;
23490;SDS011;14683;50.038;8.078;2024-03-23T20:44:08;1.13;;;0.77;;
23490;SDS011;14683;50.038;8.078;2024-03-23T20:47:09;0.82;;;0.80;;
